Time;durP1;ratioP1;P1;durP2;ratioP2;P2;SDS_P1;SDS_P2;PMS_P1;PMS_P2;Temp;Humidity;BMP_temperature;BMP_pressure;BME280_temperature;BME280_humidity;BME280_pressure;Samples;Min_cycle;Max_cycle;Signal;HPM_P1;HPM_P2
2022/12/01 00:00:39;;;;;;;14.00;8.00;;;;;;;-2.49;74.70;101007.55;106323;1295;22096;-58
2022/12/01 00:03:06;;;;;;;11.70;5.70;;;;;;;-2.55;74.84;100995.02;105991;1309;22335;-59
2022/12/01 00:05:33;;;;;;;12.30;6.00;;;;;;;-2.52;74.58;101004.20;106240;1308;137879;-59
2022/12/01 00:08:00;;;;;;;11.10;6.00;;;;;;;-2.51;74.59;101002.70;106313;1310;22107;-59
2022/12/01 00:10:27;;;;;;;11.10;6.40;;;;;;;-2.52;74.72;100999.59;106165;1310;137463;-59
2022/12/01 00:12:55;;;;;;;12.20;6.70;;;;;;;-2.53;74.49;101002.81;106532;1305;22197;-60
2022/12/01 00:15:24;;;;;;;10.70;5.20;;;;;;;-2.53;74.76;100996.66;106566;1306;138566;-59
2022/12/01 00:17:51;;;;;;;11.90;5.70;;;;;;;-2.53;74.68;100998.77;106568;1298;22123;-60
2022/12/01 00:20:18;;;;;;;10.60;5.50;;;;;;;-2.55;74.57;100993.20;106553;1305;22246;-60
2022/12/01 00:22:44;;;;;;;;;;;;;;;-2.55;74.74;100993.23;106357;1305;139272;-60
2022/12/01 00:25:12;;;;;;;12.10;5.40;;;;;;;-2.55;74.63;100993.77;106510;1305;22208;-60
2022/12/01 00:27:39;;;;;;;12.20;6.30;;;;;;;-2.64;74.68;100981.11;106429;1299;138320;-61
2022/12/01 00:30:06;;;;;;;;;;;;;;;-2.57;74.83;100989.90;106541;1306;22334;-60
2022/12/01 00:32:33;;;;;;;10.80;5.20;;;;;;;-2.59;74.69;101002.85;106556;1305;22148;-60
2022/12/01 00:35:00;;;;;;;10.50;5.80;;;;;;;-2.60;74.71;100997.83;106563;1306;139497;-60
2022/12/01 00:37:31;;;;;;;15.20;5.90;;;;;;;-2.62;74.85;100999.91;106456;1305;22123;-60
2022/12/01 00:39:58;;;;;;;12.90;5.50;;;;;;;-2.62;74.96;101001.17;106434;1305;137721;-60
2022/12/01 00:42:25;;;;;;;13.90;5.40;;;;;;;-2.63;74.80;100999.15;106552;1305;22336;-59
2022/12/01 00:44:51;;;;;;;;;;;;;;;-2.63;74.77;101000.92;106598;1305;22349;-60
2022/12/01 00:47:18;;;;;;;12.50;5.30;;;;;;;-2.63;74.96;101000.73;106426;1305;124019;-60
2022/12/01 00:49:45;;;;;;;10.90;4.80;;;;;;;-2.62;74.93;100997.50;106546;1305;22423;-59
2022/12/01 00:52:13;;;;;;;11.60;6.30;;;;;;;-2.62;74.99;100999.27;106425;1305;137594;-59
2022/12/01 00:54:40;;;;;;;14.40;6.90;;;;;;;-2.63;74.92;100992.75;106573;1305;22375;-59
2022/12/01 00:57:07;;;;;;;;;;;;;;;-2.64;74.84;100987.66;106575;1305;22338;-59
2022/12/01 00:59:34;;;;;;;10.40;6.00;;;;;;;-2.66;74.69;100989.31;106458;1297;124454;-60
2022/12/01 01:02:02;;;;;;;13.80;5.90;;;;;;;-2.71;74.85;100989.17;106530;1305;22136;-59
2022/12/01 01:04:29;;;;;;;10.70;6.00;;;;;;;-2.74;74.74;100986.59;106413;1300;138586;-59
2022/12/01 01:06:56;;;;;;;9.00;5.50;;;;;;;-2.77;74.87;100985.86;106529;1305;22673;-60
2022/12/01 01:09:24;;;;;;;14.40;6.30;;;;;;;-2.81;74.75;100980.48;106538;1303;137630;-59
2022/12/01 01:11:52;;;;;;;18.90;6.50;;;;;;;-2.84;74.81;100978.84;106527;1304;22192;-59
2022/12/01 01:14:20;;;;;;;10.80;6.10;;;;;;;-2.88;75.01;100980.93;106520;1306;22128;-59
2022/12/01 01:16:47;;;;;;;13.60;5.70;;;;;;;-2.92;74.95;100980.44;106445;1297;138083;-60
2022/12/01 01:19:15;;;;;;;14.10;7.10;;;;;;;-2.96;75.09;100978.16;106538;1305;22212;-59
2022/12/01 01:21:42;;;;;;;15.60;6.30;;;;;;;-3.00;75.00;100978.66;106456;1305;138810;-58
2022/12/01 01:24:08;;;;;;;9.60;6.00;;;;;;;-3.05;75.33;100973.95;106549;1305;22173;-59
2022/12/01 01:26:36;;;;;;;16.70;6.70;;;;;;;-3.05;75.43;100979.65;106588;1298;22227;-59
2022/12/01 01:29:03;;;;;;;10.30;5.30;;;;;;;-3.07;75.50;100983.04;106402;1305;137895;-59
2022/12/01 01:31:30;;;;;;;12.00;5.60;;;;;;;-3.09;75.66;100983.76;106554;1305;22879;-59
2022/12/01 01:33:57;;;;;;;8.50;5.20;;;;;;;-3.11;75.76;100979.98;106438;1306;139633;-60
2022/12/01 01:36:24;;;;;;;8.70;4.60;;;;;;;-3.12;75.96;100975.94;106489;1298;22114;-59
2022/12/01 01:38:50;;;;;;;;;;;;;;;-3.13;75.74;100974.30;106552;1291;22357;-58
2022/12/01 01:41:18;;;;;;;12.00;4.60;;;;;;;-3.13;75.93;100975.35;106432;1303;125823;-60
2022/12/01 01:43:59;;;;;;;9.50;4.60;;;;;;;-3.14;75.99;100972.95;106516;1306;22666;-59
2022/12/01 01:46:30;;;;;;;9.50;4.40;;;;;;;-3.20;76.29;100967.97;106505;1297;138430;-60
2022/12/01 01:48:59;;;;;;;6.30;3.50;;;;;;;-3.17;76.10;100975.54;106551;1305;22389;-59
2022/12/01 01:51:30;;;;;;;11.50;4.20;;;;;;;-3.18;76.14;100975.29;106420;1300;138132;-60
2022/12/01 01:53:59;;;;;;;11.80;4.90;;;;;;;-3.20;76.06;100977.20;106565;1305;22252;-60
2022/12/01 01:56:26;;;;;;;9.40;4.60;;;;;;;-3.21;76.36;100976.22;106602;1305;22150;-69
2022/12/01 01:58:53;;;;;;;12.30;4.70;;;;;;;-3.22;76.27;100973.83;106444;1305;137919;-69
2022/12/01 02:01:19;;;;;;;;;;;;;;;-3.23;76.28;100972.84;106557;1305;22372;-69
2022/12/01 02:03:46;;;;;;;9.90;4.90;;;;;;;-3.25;76.21;100974.04;106401;1299;126135;-69
2022/12/01 02:06:13;;;;;;;;;;;;;;;-3.27;76.55;100971.00;106540;1305;22778;-69
2022/12/01 02:08:40;;;;;;;10.20;5.30;;;;;;;-3.27;76.66;100971.38;106546;1305;22139;-68
2022/12/01 02:11:23;;;;;;;11.70;5.30;;;;;;;-3.29;76.58;100970.12;106543;1306;140475;-69
2022/12/01 02:14:12;;;;;;;11.40;5.20;;;;;;;-3.30;76.73;100970.63;106548;1305;22158;-69
2022/12/01 02:17:00;;;;;;;9.50;4.50;;;;;;;-3.32;76.73;100971.17;106338;1306;138104;-69
2022/12/01 02:19:42;;;;;;;8.90;4.90;;;;;;;-3.34;76.91;100971.00;106508;1305;22223;-70
2022/12/01 02:22:34;;;;;;;9.10;5.60;;;;;;;-3.35;76.98;100974.64;106472;1305;139171;-69
2022/12/01 02:25:10;;;;;;;11.90;5.80;;;;;;;-3.37;76.92;100973.20;106547;1297;22144;-69
2022/12/01 02:28:13;;;;;;;11.30;5.50;;;;;;;-3.39;76.86;100966.09;106523;1305;139848;-59
2022/12/01 02:30:44;;;;;;;11.90;6.30;;;;;;;-3.40;77.00;100961.57;106559;1305;22270;-60
2022/12/01 02:33:30;;;;;;;13.80;7.30;;;;;;;-3.42;77.12;100966.66;106485;1305;22180;-59
2022/12/01 02:36:00;;;;;;;13.40;5.70;;;;;;;-3.42;77.18;100964.23;106546;1305;22610;-60
2022/12/01 02:38:37;;;;;;;11.00;5.40;;;;;;;-3.44;77.31;100961.35;106565;1305;22578;-59
2022/12/01 02:41:09;;;;;;;12.30;5.00;;;;;;;-3.45;77.28;100961.27;106341;1301;139157;-60
2022/12/01 02:44:02;;;;;;;10.50;4.50;;;;;;;-3.46;77.41;100959.38;106330;1291;22319;-60
2022/12/01 02:46:33;;;;;;;13.40;5.10;;;;;;;-3.47;77.44;100964.64;106335;1299;140262;-60
2022/12/01 02:49:03;;;;;;;10.30;5.30;;;;;;;-3.49;77.41;100967.17;106497;1307;23153;-60
2022/12/01 02:51:31;;;;;;;9.10;5.00;;;;;;;-3.51;77.51;100964.13;106296;1303;138939;-61
2022/12/01 02:53:58;;;;;;;10.60;5.20;;;;;;;-3.54;77.54;100967.02;106464;1305;23406;-59
2022/12/01 02:56:25;;;;;;;8.30;4.20;;;;;;;-3.55;77.56;100967.48;106473;1307;22207;-60
2022/12/01 02:58:51;;;;;;;10.60;4.90;;;;;;;-3.58;77.66;100962.54;106419;1306;139828;-60
2022/12/01 03:01:41;;;;;;;10.60;4.20;;;;;;;-3.58;77.76;100962.59;106535;1305;23353;-60
2022/12/01 03:04:20;;;;;;;9.10;4.30;;;;;;;-3.60;77.72;100966.27;106311;1306;138099;-59
2022/12/01 03:07:05;;;;;;;12.00;5.90;;;;;;;-3.61;77.86;100965.10;106503;1306;22311;-59
2022/12/01 03:10:09;;;;;;;14.80;6.20;;;;;;;-3.61;78.04;100966.06;106399;1305;139896;-60
2022/12/01 03:13:18;;;;;;;8.40;4.60;;;;;;;-3.67;77.97;100959.63;106557;1305;22143;-58
2022/12/01 03:15:52;;;;;;;14.20;5.70;;;;;;;-3.64;77.97;100965.44;106075;1311;138149;-60
2022/12/01 03:18:43;;;;;;;8.50;5.20;;;;;;;-3.65;77.99;100960.35;106052;1310;22213;-60
2022/12/01 03:21:20;;;;;;;12.90;4.60;;;;;;;-3.66;78.08;100962.36;106355;1301;22164;-59
2022/12/01 03:23:50;;;;;;;15.30;4.80;;;;;;;-3.65;78.11;100963.77;106117;1311;23325;-59
2022/12/01 03:26:18;;;;;;;11.70;5.60;;;;;;;-3.65;78.12;100964.47;106311;1308;23095;-60
2022/12/01 03:28:48;;;;;;;8.70;4.60;;;;;;;-3.66;78.13;100967.35;106039;1309;139696;-59
2022/12/01 03:31:16;;;;;;;14.50;5.10;;;;;;;-3.66;78.09;100971.59;106292;1309;22956;-60
2022/12/01 03:33:49;;;;;;;12.30;4.80;;;;;;;-3.67;78.21;100966.36;106177;1309;139163;-60
2022/12/01 03:36:20;;;;;;;10.60;5.50;;;;;;;-3.67;78.18;100965.69;106037;1309;22193;-60
2022/12/01 03:38:50;;;;;;;10.40;4.90;;;;;;;-3.68;78.29;100967.85;106366;1309;22238;-59
2022/12/01 03:41:23;;;;;;;9.90;5.10;;;;;;;-3.67;78.13;100967.65;106228;1308;138928;-60
2022/12/01 03:43:55;;;;;;;10.40;4.70;;;;;;;-3.68;78.21;100967.89;106169;1309;22425;-59
2022/12/01 03:46:28;;;;;;;10.90;4.90;;;;;;;-3.69;78.12;100966.71;106324;1306;139459;-59
2022/12/01 03:48:55;;;;;;;16.40;6.60;;;;;;;-3.69;78.25;100964.22;106519;1298;22226;-59
2022/12/01 03:52:14;;;;;;;14.40;4.90;;;;;;;-3.69;78.13;100968.65;106485;1305;138759;-59
2022/12/01 03:55:01;;;;;;;9.80;6.10;;;;;;;-3.70;78.24;100973.89;106546;1305;22101;-60
2022/12/01 03:57:31;;;;;;;10.30;4.80;;;;;;;-3.72;78.31;100970.16;106355;1305;139315;-59
2022/12/01 03:59:58;;;;;;;10.30;6.20;;;;;;;-3.73;78.25;100973.46;106463;1300;22822;-59
2022/12/01 04:02:26;;;;;;;11.20;6.20;;;;;;;-3.74;78.20;100973.20;106457;1305;22191;-59
2022/12/01 04:04:53;;;;;;;12.60;6.10;;;;;;;-3.76;78.23;100973.74;106426;1305;138441;-59
2022/12/01 04:07:20;;;;;;;;;;;;;;;-3.77;78.24;100974.40;106542;1305;22410;-61
2022/12/01 04:09:47;;;;;;;13.00;5.50;;;;;;;-3.80;78.33;100975.16;106460;1305;124653;-59
2022/12/01 04:12:29;;;;;;;13.10;6.40;;;;;;;-3.82;78.47;100975.88;106541;1297;23140;-59
2022/12/01 04:14:56;;;;;;;11.60;5.00;;;;;;;-3.85;78.46;100973.10;106547;1302;22190;-59
2022/12/01 04:17:24;;;;;;;14.80;7.10;;;;;;;-3.86;78.53;100978.70;106410;1305;139898;-59
2022/12/01 04:19:51;;;;;;;11.50;6.50;;;;;;;-3.88;78.54;100975.09;106557;1305;22133;-60
2022/12/01 04:22:17;;;;;;;13.80;7.20;;;;;;;-3.89;78.62;100979.51;106421;1305;139609;-59
2022/12/01 04:24:44;;;;;;;14.80;7.00;;;;;;;-3.92;78.68;100977.91;106527;1305;22124;-59
2022/12/01 04:27:11;;;;;;;13.30;6.10;;;;;;;-3.93;78.66;100978.68;106567;1305;22834;-60
2022/12/01 04:29:38;;;;;;;11.70;7.00;;;;;;;-3.94;78.66;100979.37;106446;1305;138196;-59
2022/12/01 04:32:04;;;;;;;9.90;5.60;;;;;;;-3.96;78.87;100978.93;106520;1305;22146;-58
2022/12/01 04:34:31;;;;;;;;;;;;;;;-3.97;78.72;100981.67;106442;1305;138491;-59
2022/12/01 04:36:58;;;;;;;12.40;6.00;;;;;;;-3.98;78.96;100972.94;106538;1290;22246;-60
2022/12/01 04:39:25;;;;;;;15.50;8.20;;;;;;;-3.98;79.02;100978.27;106438;1305;140584;-59
2022/12/01 04:41:52;;;;;;;15.40;7.40;;;;;;;-3.98;78.99;100976.86;106538;1305;22201;-60
2022/12/01 04:44:19;;;;;;;16.80;7.10;;;;;;;-3.98;79.10;100983.08;106520;1297;23304;-60
2022/12/01 04:46:46;;;;;;;12.10;6.70;;;;;;;-4.00;79.05;100985.84;106488;1305;138794;-59
2022/12/01 04:49:12;;;;;;;;;;;;;;;-4.04;79.16;100977.20;106555;1295;23252;-59
2022/12/01 04:51:39;;;;;;;11.50;6.50;;;;;;;-4.02;79.11;100987.78;106461;1305;125300;-59
2022/12/01 04:54:06;;;;;;;15.40;7.20;;;;;;;-4.03;78.99;100984.50;106542;1305;22221;-60
2022/12/01 04:56:33;;;;;;;11.50;7.10;;;;;;;-4.04;79.15;100982.30;106553;1305;22709;-60
2022/12/01 04:58:59;;;;;;;14.50;6.20;;;;;;;-4.05;79.22;100984.34;106416;1305;139153;-60
2022/12/01 05:01:26;;;;;;;;;;;;;;;-4.06;79.26;100983.92;106605;1298;22562;-58
2022/12/01 05:03:53;;;;;;;10.20;5.60;;;;;;;-4.08;79.22;100991.05;106412;1305;126222;-60
2022/12/01 05:06:21;;;;;;;10.70;5.80;;;;;;;-4.11;79.32;100988.73;106555;1298;22600;-59
2022/12/01 05:08:49;;;;;;;11.70;5.80;;;;;;;-4.12;79.40;100988.85;106565;1297;22192;-59
2022/12/01 05:11:16;;;;;;;12.40;6.60;;;;;;;-4.13;79.33;100992.44;106586;1306;138895;-60
2022/12/01 05:13:45;;;;;;;12.10;6.00;;;;;;;-4.12;79.50;100993.50;106559;1305;22244;-60
2022/12/01 05:16:12;;;;;;;12.70;6.00;;;;;;;-4.13;79.46;100990.91;106575;1304;139335;-60
2022/12/01 05:18:39;;;;;;;11.50;6.70;;;;;;;-4.15;79.47;100992.25;106540;1305;22123;-58
2022/12/01 05:21:07;;;;;;;14.60;6.50;;;;;;;-4.14;79.51;100993.32;106565;1305;22134;-59
2022/12/01 05:23:35;;;;;;;11.00;5.80;;;;;;;-4.16;79.47;100994.33;106456;1305;138688;-61
2022/12/01 05:26:02;;;;;;;12.80;6.80;;;;;;;-4.17;79.44;100995.50;106517;1297;22161;-59
2022/12/01 05:28:29;;;;;;;13.90;6.20;;;;;;;-4.19;79.57;100993.02;106401;1297;139038;-59
2022/12/01 05:30:56;;;;;;;;;;;;;;;-4.20;79.66;100997.35;106559;1290;22426;-59
2022/12/01 05:33:24;;;;;;;11.90;6.60;;;;;;;-4.21;79.63;100993.14;106431;1287;124921;-60
2022/12/01 05:35:50;;;;;;;11.10;5.50;;;;;;;-4.22;79.64;100991.85;106544;1305;22108;-59
2022/12/01 05:38:17;;;;;;;;;;;;;;;-4.22;79.70;100995.59;106545;1297;22461;-60
2022/12/01 05:40:51;;;;;;;12.50;6.30;;;;;;;-4.23;79.83;100997.23;106478;1305;125106;-60
2022/12/01 05:43:19;;;;;;;9.50;5.00;;;;;;;-4.24;79.92;100998.01;106539;1305;22228;-59
2022/12/01 05:45:54;;;;;;;13.00;7.20;;;;;;;-4.25;79.96;101004.48;106427;1296;139142;-59
2022/12/01 05:48:21;;;;;;;14.70;6.80;;;;;;;-4.27;79.81;101001.95;106554;1291;22137;-60
2022/12/01 05:50:47;;;;;;;14.90;6.60;;;;;;;-4.27;79.95;101005.89;106563;1305;22129;-60
2022/12/01 05:53:14;;;;;;;15.80;7.80;;;;;;;-4.28;80.04;101005.39;106605;1305;138319;-60
2022/12/01 05:55:41;;;;;;;12.80;6.20;;;;;;;-4.27;80.01;101005.14;106531;1305;22196;-60
2022/12/01 05:58:08;;;;;;;;;;;;;;;-4.25;80.12;101011.44;106443;1299;138948;-59
2022/12/01 06:00:35;;;;;;;13.90;7.10;;;;;;;-4.25;79.97;101010.34;106580;1305;22096;-59
2022/12/01 06:03:09;;;;;;;12.60;7.20;;;;;;;-4.25;80.14;101010.17;106530;1305;22121;-60
2022/12/01 06:05:36;;;;;;;20.10;7.90;;;;;;;-4.25;80.01;101010.52;106452;1297;138415;-59
2022/12/01 06:08:02;;;;;;;15.20;7.60;;;;;;;-4.24;80.11;101012.23;106528;1305;22213;-57
2022/12/01 06:10:29;;;;;;;16.80;8.10;;;;;;;-4.23;80.16;101011.77;106440;1300;140536;-58
2022/12/01 06:12:56;;;;;;;20.00;10.30;;;;;;;-4.21;80.27;101019.99;106565;1305;22208;-60
2022/12/01 06:15:22;;;;;;;16.20;9.30;;;;;;;-4.19;80.35;101021.24;106471;1305;138757;-59
2022/12/01 06:17:49;;;;;;;17.70;11.00;;;;;;;-4.17;80.31;101017.63;106553;1305;24435;-59
2022/12/01 06:20:16;;;;;;;17.10;10.00;;;;;;;-4.14;80.36;101022.34;106568;1305;22210;-60
2022/12/01 06:22:43;;;;;;;;;;;;;;;-4.10;80.31;101027.03;106455;1305;141668;-59
2022/12/01 06:25:09;;;;;;;14.50;8.50;;;;;;;-4.08;80.21;101026.48;106542;1305;22128;-53
2022/12/01 06:27:36;;;;;;;;;;;;;;;-4.10;80.22;101016.73;106473;1305;139514;-60
2022/12/01 06:30:03;;;;;;;20.70;10.30;;;;;;;-4.05;80.24;101021.93;106547;1305;22332;-59
2022/12/01 06:32:30;;;;;;;19.00;9.30;;;;;;;-4.03;80.20;101023.72;106520;1305;22182;-59
2022/12/01 06:34:57;;;;;;;14.20;8.50;;;;;;;-4.00;80.33;101014.61;106507;1305;138804;-59
2022/12/01 06:37:23;;;;;;;19.70;10.20;;;;;;;-3.95;80.20;101018.30;106541;1305;22181;-60
2022/12/01 06:39:50;;;;;;;16.80;9.50;;;;;;;-3.95;80.10;101003.40;106472;1305;138347;-60
2022/12/01 06:42:17;;;;;;;17.90;9.00;;;;;;;-3.87;80.15;101010.33;106482;1289;22117;-60
2022/12/01 06:44:45;;;;;;;20.40;8.30;;;;;;;-3.82;80.08;101006.71;106472;1305;22171;-59
2022/12/01 06:47:11;;;;;;;20.80;9.40;;;;;;;-3.76;79.96;101011.70;106417;1299;139241;-59
2022/12/01 06:49:38;;;;;;;17.30;8.20;;;;;;;-3.71;79.93;101008.65;106479;1306;22296;-59
2022/12/01 06:52:05;;;;;;;12.90;7.10;;;;;;;-3.67;79.89;101005.76;106388;1305;138926;-60
2022/12/01 06:54:32;;;;;;;15.40;7.80;;;;;;;-3.62;79.53;101005.91;106498;1306;22300;-60
2022/12/01 06:56:59;;;;;;;19.00;9.10;;;;;;;-3.57;79.46;101006.51;103259;1300;22677;-60
2022/12/01 06:59:25;;;;;;;;;;;;;;;-3.52;79.49;101007.22;102170;1291;138553;-60
2022/12/01 07:01:53;;;;;;;23.80;9.10;;;;;;;-3.49;79.23;101007.45;102302;1298;25533;-59
2022/12/01 07:04:20;;;;;;;40.90;15.50;;;;;;;-3.46;79.04;101004.70;102087;1298;137613;-59
2022/12/01 07:06:46;;;;;;;;;;;;;;;-3.44;78.92;101005.58;102199;1298;22476;-59
2022/12/01 07:09:13;;;;;;;25.30;13.50;;;;;;;-3.42;78.68;101009.29;102358;1288;24239;-59
2022/12/01 07:11:40;;;;;;;108.70;45.40;;;;;;;-3.40;78.53;101010.04;102170;1288;137698;-60
2022/12/01 07:14:09;;;;;;;;;;;;;;;-3.38;78.28;101010.63;102170;1291;24508;-60
2022/12/01 07:16:36;;;;;;;26.40;13.10;;;;;;;-3.37;78.09;101010.83;101861;1298;125807;-60
2022/12/01 07:19:03;;;;;;;;;;;;;;;-3.34;77.90;101013.98;102279;1287;25647;-58
2022/12/01 07:21:29;;;;;;;35.50;16.70;;;;;;;-3.32;77.94;101012.35;102080;1298;126530;-59
2022/12/01 07:23:56;;;;;;;21.80;11.30;;;;;;;-3.34;77.70;101001.17;102116;1298;22580;-60
2022/12/01 07:26:23;;;;;;;36.10;14.50;;;;;;;-3.30;77.58;100998.36;102173;1297;22563;-59
2022/12/01 07:28:49;;;;;;;25.70;13.10;;;;;;;-3.20;77.60;101009.73;102013;1294;139049;-60
2022/12/01 07:31:17;;;;;;;32.10;12.50;;;;;;;-3.15;77.48;101010.86;102230;1290;22522;-61
2022/12/01 07:33:44;;;;;;;83.90;48.90;;;;;;;-3.10;77.31;101009.93;101986;1298;138739;-60
2022/12/01 07:36:11;;;;;;;;;;;;;;;-3.06;76.97;101005.30;102177;1289;22501;-59
2022/12/01 07:38:38;;;;;;;41.80;20.40;;;;;;;-3.02;76.77;101004.00;102124;1298;24216;-59
2022/12/01 07:41:06;;;;;;;67.70;26.50;;;;;;;-2.96;76.77;101002.66;102097;1290;138241;-59
2022/12/01 07:43:33;;;;;;;36.70;17.20;;;;;;;-2.92;76.69;101003.54;102227;1290;22476;-59
2022/12/01 07:46:10;;;;;;;38.60;17.70;;;;;;;-2.88;76.44;100999.05;102070;1291;138475;-61
2022/12/01 07:48:44;;;;;;;33.80;13.80;;;;;;;-2.83;76.15;101003.48;101982;1298;25193;-60
2022/12/01 07:51:11;;;;;;;;;;;;;;;-2.81;75.98;101000.77;102247;1284;22486;-60
2022/12/01 07:53:38;;;;;;;25.30;11.90;;;;;;;-2.78;75.98;101003.16;102233;1298;124174;-60
2022/12/01 07:56:05;;;;;;;36.00;16.00;;;;;;;-2.74;75.66;101001.76;102285;1290;24035;-59
2022/12/01 07:58:34;;;;;;;25.90;12.10;;;;;;;-2.69;75.69;101001.67;102201;1288;137787;-59
2022/12/01 08:01:05;;;;;;;;;;;;;;;-2.66;75.53;101005.81;102324;1281;25403;-60
2022/12/01 08:03:32;;;;;;;41.40;22.20;;;;;;;-2.63;75.24;101002.21;106188;1305;124178;-59
2022/12/01 08:05:59;;;;;;;41.90;19.50;;;;;;;-2.61;75.12;101003.80;106616;1305;22206;-57
2022/12/01 08:08:26;;;;;;;19.90;9.70;;;;;;;-2.60;74.65;101002.47;106441;1305;22120;-58
2022/12/01 08:10:53;;;;;;;18.40;8.80;;;;;;;-2.60;74.82;101004.02;101978;1307;138294;-60
2022/12/01 08:13:19;;;;;;;;;;;;;;;-2.58;74.39;101006.02;102148;1301;22585;-59
2022/12/01 08:15:46;;;;;;;25.90;10.90;;;;;;;-2.57;74.61;100998.56;101941;1300;125474;-60
2022/12/01 08:18:13;;;;;;;;;;;;;;;-2.54;74.47;100999.55;102161;1308;22850;-60
2022/12/01 08:20:40;;;;;;;21.80;9.70;;;;;;;-2.49;74.64;100994.55;102048;1298;22480;-59
2022/12/01 09:08:44;;;;;;;56.10;21.10;;;;;;;-1.98;72.87;100978.29;106540;1305;22316;-60
2022/12/01 09:11:17;;;;;;;20.90;10.30;;;;;;;-1.94;72.49;100979.67;106411;1300;138039;-61
2022/12/01 09:13:44;;;;;;;19.90;8.80;;;;;;;-1.96;72.57;100970.03;106516;1296;22386;-59
2022/12/01 09:16:20;;;;;;;14.00;7.50;;;;;;;-1.87;72.20;100973.98;106387;1305;138404;-60
2022/12/01 09:18:46;;;;;;;14.60;7.60;;;;;;;-1.83;72.31;100974.17;106634;1305;22272;-61
2022/12/01 09:21:17;;;;;;;20.00;8.80;;;;;;;-1.78;72.23;100970.04;106552;1300;22133;-59
2022/12/01 09:23:44;;;;;;;32.10;14.40;;;;;;;-1.74;72.04;100972.13;106422;1305;137349;-60
2022/12/01 09:26:11;;;;;;;;;;;;;;;-1.71;71.99;100972.38;106548;1297;22494;-60
2022/12/01 09:28:39;;;;;;;;;;;;;;;-1.67;71.92;100972.35;106445;1290;124456;-60
2022/12/01 09:31:07;;;;;;;15.40;8.40;;;;;;;-1.65;71.64;100968.80;106533;1299;22262;-60
2022/12/01 09:33:34;;;;;;;20.10;8.50;;;;;;;-1.65;71.28;100965.57;106347;1294;137783;-60
2022/12/01 09:36:01;;;;;;;;;;;;;;;-1.64;71.57;100965.15;106548;1297;23255;-59
2022/12/01 09:38:28;;;;;;;16.20;7.80;;;;;;;-1.63;71.48;100964.84;106645;1290;22436;-59
2022/12/01 09:40:55;;;;;;;15.60;7.40;;;;;;;-1.61;71.49;100963.38;106446;1305;137968;-59
2022/12/01 09:43:24;;;;;;;14.40;7.40;;;;;;;-1.58;71.14;100962.76;106434;1300;22148;-60
2022/12/01 09:46:02;;;;;;;20.40;9.20;;;;;;;-1.54;71.47;100958.84;106337;1305;138343;-59
2022/12/01 09:48:56;;;;;;;12.10;6.70;;;;;;;-1.49;71.22;100962.63;106497;1294;22125;-59
2022/12/01 09:51:24;;;;;;;13.00;6.50;;;;;;;-1.43;71.32;100954.22;106555;1305;22324;-59
2022/12/01 09:53:52;;;;;;;35.50;10.80;;;;;;;-1.38;71.03;100953.73;106457;1296;22218;-59
2022/12/01 09:56:22;;;;;;;32.80;14.30;;;;;;;-1.34;71.26;100956.70;104280;1293;27737;-60
2022/12/01 09:58:51;;;;;;;15.70;8.80;;;;;;;-1.29;70.93;100956.79;102219;1296;137769;-60
2022/12/01 10:01:19;;;;;;;12.70;7.00;;;;;;;-1.25;70.74;100959.23;102171;1298;24499;-60
2022/12/01 10:03:54;;;;;;;15.40;6.40;;;;;;;-1.21;70.55;100959.59;102050;1298;137680;-60
2022/12/01 10:06:39;;;;;;;106.90;42.80;;;;;;;-1.24;70.26;100947.35;106250;1312;22156;-60
2022/12/01 10:09:18;;;;;;;14.10;7.30;;;;;;;-1.17;70.21;100957.71;106529;1305;22990;-60
2022/12/01 10:11:45;;;;;;;398.50;96.00;;;;;;;-1.14;69.96;100961.54;106452;1297;138556;-60
2022/12/01 10:14:16;;;;;;;143.50;47.00;;;;;;;-1.16;69.66;100944.14;106418;1305;22244;-59
2022/12/01 10:17:06;;;;;;;101.10;33.20;;;;;;;-1.09;69.86;100951.81;106442;1291;138113;-59
2022/12/01 10:19:38;;;;;;;40.50;13.00;;;;;;;-1.06;69.89;100946.71;106520;1305;22190;-60
2022/12/01 10:22:39;;;;;;;21.70;10.40;;;;;;;-1.03;69.82;100945.20;106376;1305;139087;-60
2022/12/01 10:25:26;;;;;;;18.90;8.70;;;;;;;-0.98;69.47;100943.98;106453;1306;22126;-53
2022/12/01 10:28:11;;;;;;;31.20;11.90;;;;;;;-0.94;69.39;100943.02;101929;1291;138205;-60
2022/12/01 10:30:47;;;;;;;107.20;27.40;;;;;;;-0.92;68.80;100944.27;102117;1298;22592;-59
2022/12/01 10:33:20;;;;;;;84.60;26.70;;;;;;;-0.90;68.56;100936.64;102092;1308;22487;-59
2022/12/01 10:35:47;;;;;;;45.20;18.10;;;;;;;-0.89;68.49;100938.06;102288;1303;138527;-62
2022/12/01 10:38:23;;;;;;;25.80;13.30;;;;;;;-0.88;68.79;100939.10;102116;1313;22490;-59
2022/12/01 10:40:52;;;;;;;32.80;13.70;;;;;;;-0.86;68.67;100935.94;101953;1290;139324;-59
2022/12/01 10:43:23;;;;;;;20.50;12.90;;;;;;;-0.83;68.91;100934.46;102058;1297;22614;-59
2022/12/01 10:45:50;;;;;;;11.70;6.10;;;;;;;-0.80;68.64;100933.80;102049;1307;139899;-59
2022/12/01 10:48:21;;;;;;;10.00;5.80;;;;;;;-0.79;68.47;100930.71;102023;1291;22501;-60
2022/12/01 10:50:55;;;;;;;8.20;4.60;;;;;;;-0.80;68.21;100925.75;106282;1306;22125;-59
2022/12/01 10:53:22;;;;;;;22.50;9.60;;;;;;;-0.84;67.99;100916.59;106471;1305;137377;-60
2022/12/01 10:58:46;;;;;;;14.00;6.70;;;;;;;-0.79;67.82;100922.30;99512;1342;544884;-58
2022/12/01 11:01:16;;;;;;;16.10;8.50;;;;;;;-0.82;67.80;100926.82;105670;1315;23163;-60
2022/12/01 11:03:43;;;;;;;21.50;15.30;;;;;;;-0.82;67.96;100931.27;105616;1313;138347;-60
2022/12/01 11:06:10;;;;;;;;;;;;;;;-0.82;67.88;100932.44;105949;1308;22471;-60
2022/12/01 11:08:43;;;;;;;57.10;20.50;;;;;;;-0.83;67.50;100928.59;105936;1306;22207;-59
2022/12/01 11:11:37;;;;;;;17.70;7.10;;;;;;;-0.84;67.42;100924.19;105570;1313;193272;-59
2022/12/01 11:14:16;;;;;;;10.50;5.60;;;;;;;-0.85;67.42;100914.88;106002;1313;22204;-59
2022/12/01 11:16:44;;;;;;;20.70;6.90;;;;;;;-0.87;67.37;100916.64;105933;1306;137179;-60
2022/12/01 11:19:32;;;;;;;59.50;19.70;;;;;;;-0.88;67.63;100915.70;106141;1313;22927;-60
2022/12/01 11:22:17;;;;;;;47.80;16.90;;;;;;;-0.88;67.77;100912.16;105955;1313;137819;-59
2022/12/01 11:24:56;;;;;;;22.20;9.90;;;;;;;-0.91;67.48;100908.52;106104;1312;22136;-59
2022/12/01 11:27:29;;;;;;;11.50;7.00;;;;;;;-0.92;67.79;100908.82;106084;1315;22889;-59
2022/12/01 11:29:59;;;;;;;12.90;6.30;;;;;;;-0.94;67.85;100908.80;106113;1313;22998;-60
2022/12/01 11:32:28;;;;;;;48.50;22.40;;;;;;;-0.96;68.12;100906.47;106109;1313;22789;-60
2022/12/01 11:35:05;;;;;;;29.70;13.60;;;;;;;-0.97;68.06;100907.33;105932;1315;139515;-59
2022/12/01 11:37:37;;;;;;;15.10;6.70;;;;;;;-0.96;68.22;100908.83;106088;1312;22255;-60
2022/12/01 11:40:06;;;;;;;31.50;13.20;;;;;;;-0.95;68.13;100905.20;105992;1313;138144;-59
2022/12/01 11:42:33;;;;;;;27.80;12.60;;;;;;;-0.93;68.02;100909.95;106042;1303;22138;-59
2022/12/01 11:45:17;;;;;;;18.60;7.70;;;;;;;-0.92;68.07;100913.27;106062;1310;22158;-60
2022/12/01 11:48:19;;;;;;;14.30;6.90;;;;;;;-0.91;68.03;100911.01;105959;1313;137957;-60
2022/12/01 11:51:03;;;;;;;14.80;8.40;;;;;;;-0.89;68.02;100907.80;105367;1319;22655;-59
2022/12/01 11:53:36;;;;;;;11.90;6.30;;;;;;;-0.88;67.93;100900.89;105147;1320;137557;-60
2022/12/01 11:56:22;;;;;;;14.70;7.60;;;;;;;-0.88;68.09;100902.86;105166;1318;23069;-59
2022/12/01 11:58:58;;;;;;;12.50;7.00;;;;;;;-0.88;68.03;100903.93;105021;1322;138890;-59
2022/12/01 12:01:53;;;;;;;19.20;9.30;;;;;;;-0.90;67.98;100898.93;105103;1323;22913;-59
2022/12/01 12:04:25;;;;;;;23.00;9.60;;;;;;;-0.91;68.14;100903.36;105120;1319;137389;-60
2022/12/01 12:07:29;;;;;;;12.20;6.70;;;;;;;-0.92;68.32;100900.98;105364;1318;22301;-60
2022/12/01 12:10:20;;;;;;;15.50;7.00;;;;;;;-0.94;68.36;100902.61;105248;1322;138467;-59
2022/12/01 12:12:51;;;;;;;15.60;7.60;;;;;;;-0.97;68.24;100904.05;105247;1320;23396;-59
2022/12/01 12:15:26;;;;;;;16.90;9.00;;;;;;;-0.98;68.78;100900.59;105320;1319;23583;-60
2022/12/01 12:18:15;;;;;;;18.80;9.90;;;;;;;-0.97;68.60;100900.93;105196;1321;22262;-60